Jacksonville International Airport
KJAX : now visible

Airfield :











YOU CAN JOIN US ON...

 
LOGIN :

Register | Disclaimer

   EN    FR    IT 

 









Legend :    VFR   Marginal VFR   IFR   Intensive IFR   Very Intensive IFR
Visi :
Ceiling :
>= 8 km
>= 3000ft
5 to 8 km
1000 to 3000 ft
1500m to 5 km
500 to 1000 ft
800 to 1500m
200 to 500 ft
< 800m
< 200 ft
Symbols :   Thunderstorms  Fog  Heavy snow  Heavy precipitations  Wind > 20 kt






- Airport Elevation : 30 ft
- IATA code : JAX


KJAX - Jacksonville International

CURRENT METAR :
  • 160756Z 27007KT 10SM CLR 06/05 A2987 RMK AO2 SLP114 T00610050

EXPIRED METARs :
  • 160656Z 25008KT 10SM CLR 08/06 A2985 RMK AO2 SLP108 T00780061
  • 160556Z 26008KT 10SM SCT250 09/08 A2983 RMK AO2 SLP102 60000 T00890078 10139 20089 53013

TAF KJAX
Valid from the 16 at 06:00 until the 17 at 06:00 UTC


160523Z 1606/1706 26007KT P6SM FEW250
FM161500 26017G25KT P6SM FEW060
FM162300 27007KT P6SM FEW250
KZJX FIR / North America



MET'MAP, your aeronautical weather chart ! - Copyright ORBIFLY December 2007 - Disclaimer

ORBIFLY MET'MAP TEAM :

Programming & Development : Alexandra Zaïnal
Concept & original design : Baudouin d'Aumeries
Assistance for programming : Marc-Olivier Méhu
Technical & hardware support : Manuel Goepfert

Contact : metmap@orbifly.com




SOURCES & CREDITS :

   NOAA       Earth
Advisory